Contact Us:
Email: info@sawbill.com
Phone: (218)663-7150
Fax: (218)663-7980
Mail: 4620 Sawbill Trail
Box 2129
Tofte, MN 55615


Powered by
Movable Type 3.15
 
Sawbill Weather History Archives: August 2017
Current Sawbill Weather History | « July 2017 | September 2017 »


Date

High
Temperature

Low
Temperature

Barometric
Pressure

Relative
Humidity 7AM

9 AM
Temperature

Moisture

Snow

8/31/17 70 35 30.20 79% 56 0"
8/30/17 68 44 30.20 72% 44 0"
8/29/17 73 48 30.10 51% 60 0"
8/28/17 64 58 30.10 90% 50 0"
8/27/17 61 56 30.02 96% 57 .24"
8/26/17 61 54 30.02 98% 56 .74"
8/25/17 65 37 30.16 71% 57 0"
8/24/17 62 36 30.16 69% 37 0"
8/23/17 61 39 30.14 78% 45 0"
8/22/17 67 50 30.00 76% 59 .27"
8/21/17 66 53 30.00 78% 54 Trace
8/20/17 75 52 30.06 47% 57 0"
8/19/17 73 51 29.98 94% 62 0"
8/18/17 68 57 29.96 97% 59 Trace
8/17/17 68 57 29.92 89% 59 .97"
8/16/17 70 52 29.90 98% 52 .47"
8/15/17 70 47 30.02 46% 49 0"
8/14/17 65 51 30.04 71% 59 .53"
8/13/17 72 54 30.00 89% 58 .04"
8/12/17 74 54 30.06 80% 54 0"
8/11/17 72 52 30.10 84% 50 0"
8/10/17 62 52 30.08 98% 52 .63"
8/9/17 70 56 30.04 95% 58 .40"
8/8/17 73 56 30.08 90% 56 .59"
8/7/17 73 50 30.08 66% 63 0"
8/5/17 69 50 30.04 76% 51 0"
8/4/17 67 53 30.00 90% 54 Trace
8/3/17 67 50 30.12 71% 53 0"
8/1/17 77 54 30.12 71% 55 .14"
 


Home I Trip Planning I Rentals and Outfitting I Reservations I Campgrounds I Sawbill Store I Sawbill News I Contact

© 1997 - 2017, Sawbill Canoe Outfitters, Inc. I Privacy Policy